Time;durP1;ratioP1;P1;durP2;ratioP2;P2;SDS_P1;SDS_P2;PMS_P1;PMS_P2;Temp;Humidity;BMP_temperature;BMP_pressure;BME280_temperature;BME280_humidity;BME280_pressure;Samples;Min_cycle;Max_cycle;Signal;HPM_P1;HPM_P2
2021/09/11 00:01:00;;;;;;;8.70;7.80;;;;;;;;;;5062191;28;20136;-81
2021/09/11 00:03:27;;;;;;;8.63;7.72;;;;;;;;;;5059121;28;20555;-80
2021/09/11 00:05:53;;;;;;;9.68;7.85;;;;;;;;;;5072383;28;20056;-80
2021/09/11 00:08:20;;;;;;;10.30;7.97;;;;;;;;;;5078075;28;20090;-80
2021/09/11 00:10:46;;;;;;;10.18;8.02;;;;;;;;;;5057261;28;20079;-80
2021/09/11 00:13:12;;;;;;;8.93;7.70;;;;;;;;;;5066071;28;20067;-80
2021/09/11 00:15:39;;;;;;;9.40;7.72;;;;;;;;;;5053073;28;20068;-81
2021/09/11 00:18:06;;;;;;;10.23;8.02;;;;;;;;;;5036716;28;20071;-81
2021/09/11 00:20:32;;;;;;;9.85;8.10;;;;;;;;;;5031256;28;21413;-81
2021/09/11 00:23:00;;;;;;;9.73;7.60;;;;;;;;;;5068442;28;20530;-81
2021/09/11 00:25:26;;;;;;;9.88;8.07;;;;;;;;;;5066467;28;20063;-81
2021/09/11 00:27:53;;;;;;;9.75;7.88;;;;;;;;;;5062902;28;20063;-81
2021/09/11 00:30:19;;;;;;;9.85;7.57;;;;;;;;;;5057093;28;20090;-81
2021/09/11 00:32:46;;;;;;;9.75;7.70;;;;;;;;;;5049597;28;20232;-81
2021/09/11 00:35:17;;;;;;;9.57;8.07;;;;;;;;;;5061557;28;20044;-81
2021/09/11 00:37:43;;;;;;;9.68;7.60;;;;;;;;;;5021831;28;20560;-81
2021/09/11 00:40:11;;;;;;;8.52;7.63;;;;;;;;;;5062763;28;20067;-80
2021/09/11 00:42:40;;;;;;;9.18;7.65;;;;;;;;;;5076081;28;20440;-79
2021/09/11 00:45:07;;;;;;;9.05;8.05;;;;;;;;;;5069595;28;20056;-80
2021/09/11 00:47:33;;;;;;;8.98;7.45;;;;;;;;;;5062831;28;20056;-80
2021/09/11 00:50:00;;;;;;;10.77;8.05;;;;;;;;;;5065040;28;20064;-79
2021/09/11 00:52:26;;;;;;;9.73;7.70;;;;;;;;;;5071194;28;20510;-80
2021/09/11 00:54:52;;;;;;;9.25;7.55;;;;;;;;;;5065275;28;20064;-79
2021/09/11 00:57:20;;;;;;;9.55;8.13;;;;;;;;;;5046028;28;20059;-80
2021/09/11 00:59:46;;;;;;;9.50;7.95;;;;;;;;;;5047700;28;20071;-80
2021/09/11 01:02:13;;;;;;;8.85;7.18;;;;;;;;;;5074388;28;20060;-81
2021/09/11 01:04:39;;;;;;;8.93;7.78;;;;;;;;;;5068314;28;20064;-81
2021/09/11 01:07:05;;;;;;;9.07;7.90;;;;;;;;;;5075180;28;20044;-81
2021/09/11 01:09:32;;;;;;;9.65;8.63;;;;;;;;;;5067549;28;20064;-80
2021/09/11 01:11:59;;;;;;;8.48;7.57;;;;;;;;;;5037720;28;20068;-80
2021/09/11 01:14:25;;;;;;;9.00;8.10;;;;;;;;;;5069119;28;20466;-80
2021/09/11 01:16:51;;;;;;;10.25;8.30;;;;;;;;;;5053416;28;20071;-80
2021/09/11 01:19:18;;;;;;;9.18;7.72;;;;;;;;;;5066879;28;20075;-80
2021/09/11 01:21:44;;;;;;;10.40;8.05;;;;;;;;;;5065230;28;20076;-80
2021/09/11 01:24:11;;;;;;;9.88;8.15;;;;;;;;;;5056766;28;20047;-80
2021/09/11 01:26:37;;;;;;;9.60;8.00;;;;;;;;;;5072047;28;20063;-80
2021/09/11 01:29:08;;;;;;;9.30;8.10;;;;;;;;;;5071401;28;20686;-80
2021/09/11 01:31:35;;;;;;;10.55;7.95;;;;;;;;;;5061069;28;21514;-79
2021/09/11 01:34:02;;;;;;;9.02;7.60;;;;;;;;;;5067217;28;20114;-80
2021/09/11 01:36:29;;;;;;;9.23;8.23;;;;;;;;;;5064196;28;20063;-80
2021/09/11 01:38:55;;;;;;;10.65;8.27;;;;;;;;;;5072853;28;21038;-81
2021/09/11 01:41:21;;;;;;;9.75;8.07;;;;;;;;;;5046197;28;20110;-81
2021/09/11 01:43:48;;;;;;;11.25;8.15;;;;;;;;;;5062032;28;20464;-81
2021/09/11 01:46:14;;;;;;;10.00;8.50;;;;;;;;;;5069183;28;20071;-80
2021/09/11 01:48:41;;;;;;;10.02;8.45;;;;;;;;;;5069407;28;20052;-81
2021/09/11 01:51:07;;;;;;;10.80;8.02;;;;;;;;;;5073053;28;20071;-81
2021/09/11 01:53:33;;;;;;;12.13;8.85;;;;;;;;;;5071374;28;20044;-80
2021/09/11 01:56:00;;;;;;;10.82;8.27;;;;;;;;;;5075826;28;20052;-79
2021/09/11 01:58:26;;;;;;;10.63;8.57;;;;;;;;;;5078652;28;20122;-81
2021/09/11 02:00:53;;;;;;;9.50;8.00;;;;;;;;;;5063052;28;20064;-80
2021/09/11 02:03:19;;;;;;;9.77;7.75;;;;;;;;;;5059254;28;20064;-81
2021/09/11 02:05:46;;;;;;;10.38;8.68;;;;;;;;;;5051723;28;20059;-81
2021/09/11 02:08:12;;;;;;;9.27;8.18;;;;;;;;;;5060671;28;20071;-81
2021/09/11 02:10:39;;;;;;;10.13;8.40;;;;;;;;;;5079136;28;20064;-80
2021/09/11 02:13:05;;;;;;;10.88;8.55;;;;;;;;;;5056019;28;20067;-80
2021/09/11 02:15:32;;;;;;;10.60;7.68;;;;;;;;;;5075247;28;20056;-81
2021/09/11 02:17:58;;;;;;;8.90;7.80;;;;;;;;;;5063033;28;20263;-80
2021/09/11 02:20:25;;;;;;;10.88;8.30;;;;;;;;;;5060508;28;20075;-80
2021/09/11 02:22:51;;;;;;;10.02;8.45;;;;;;;;;;5062094;28;20072;-80
2021/09/11 02:25:17;;;;;;;10.18;7.95;;;;;;;;;;5067170;28;20095;-80
2021/09/11 02:27:44;;;;;;;11.93;9.18;;;;;;;;;;5044889;28;20037;-80
2021/09/11 02:30:10;;;;;;;11.82;8.25;;;;;;;;;;5060888;28;20167;-81
2021/09/11 02:32:37;;;;;;;10.77;8.50;;;;;;;;;;5062419;28;20754;-80
2021/09/11 02:35:03;;;;;;;11.02;8.95;;;;;;;;;;5075700;28;20055;-81
2021/09/11 02:37:30;;;;;;;11.15;8.60;;;;;;;;;;5058180;28;20052;-80
2021/09/11 02:39:56;;;;;;;11.27;8.40;;;;;;;;;;5063697;28;20060;-80
2021/09/11 02:42:22;;;;;;;11.48;8.73;;;;;;;;;;5079303;28;20155;-81
2021/09/11 02:44:49;;;;;;;10.38;8.02;;;;;;;;;;5080107;28;20185;-80
2021/09/11 02:47:15;;;;;;;12.15;8.38;;;;;;;;;;5077271;28;20068;-81
2021/09/11 02:49:42;;;;;;;12.13;8.88;;;;;;;;;;5074430;28;20078;-80
2021/09/11 02:52:08;;;;;;;10.85;8.65;;;;;;;;;;5075885;28;20036;-81
2021/09/11 02:54:35;;;;;;;10.00;8.32;;;;;;;;;;5084081;28;20139;-81
2021/09/11 02:57:01;;;;;;;10.48;7.90;;;;;;;;;;5085165;28;20052;-81
2021/09/11 02:59:27;;;;;;;10.55;8.43;;;;;;;;;;5076195;28;20052;-81
2021/09/11 03:01:54;;;;;;;10.82;8.70;;;;;;;;;;5073972;28;20060;-81
2021/09/11 03:04:20;;;;;;;11.65;8.73;;;;;;;;;;5060193;28;20122;-80
2021/09/11 03:06:47;;;;;;;10.45;8.23;;;;;;;;;;5057385;28;20067;-81
2021/09/11 03:09:13;;;;;;;11.32;8.27;;;;;;;;;;5050884;28;20116;-81
2021/09/11 03:11:39;;;;;;;11.55;8.68;;;;;;;;;;5081668;28;20040;-81
2021/09/11 03:14:06;;;;;;;10.18;8.70;;;;;;;;;;5081173;28;20143;-82
2021/09/11 03:16:32;;;;;;;11.05;8.70;;;;;;;;;;5055953;28;20060;-81
2021/09/11 03:18:59;;;;;;;11.07;8.55;;;;;;;;;;5067712;28;20096;-80
2021/09/11 03:21:25;;;;;;;10.80;8.38;;;;;;;;;;5076025;28;20058;-81
2021/09/11 03:23:51;;;;;;;10.60;8.02;;;;;;;;;;5061786;28;20122;-80
2021/09/11 03:26:18;;;;;;;10.60;8.52;;;;;;;;;;5086333;28;20552;-81
2021/09/11 03:28:44;;;;;;;11.48;8.57;;;;;;;;;;5076567;28;20570;-80
2021/09/11 03:31:11;;;;;;;11.30;8.35;;;;;;;;;;5066146;28;20067;-81
2021/09/11 03:33:37;;;;;;;9.77;8.23;;;;;;;;;;5038217;28;20068;-82
2021/09/11 03:36:04;;;;;;;10.35;8.13;;;;;;;;;;5069845;28;20529;-82
2021/09/11 03:38:31;;;;;;;9.68;8.38;;;;;;;;;;5063476;28;20104;-81
2021/09/11 03:40:57;;;;;;;10.32;8.38;;;;;;;;;;5064202;28;20059;-81
2021/09/11 03:43:23;;;;;;;10.57;8.57;;;;;;;;;;5083091;28;20052;-80
2021/09/11 03:45:50;;;;;;;9.98;8.02;;;;;;;;;;5040928;28;20094;-80
2021/09/11 03:48:16;;;;;;;10.60;8.00;;;;;;;;;;5064739;28;20440;-80
2021/09/11 03:50:43;;;;;;;10.90;8.48;;;;;;;;;;5055081;28;20060;-80
2021/09/11 03:53:09;;;;;;;10.25;8.18;;;;;;;;;;5070143;28;20130;-80
2021/09/11 03:55:36;;;;;;;10.13;8.57;;;;;;;;;;5073965;28;20124;-79
2021/09/11 03:58:02;;;;;;;10.60;8.38;;;;;;;;;;5071222;28;20041;-80
2021/09/11 04:00:29;;;;;;;10.68;8.45;;;;;;;;;;5069770;28;20064;-79
2021/09/11 04:02:55;;;;;;;9.25;7.50;;;;;;;;;;5054109;28;20045;-78
2021/09/11 04:05:22;;;;;;;9.23;7.22;;;;;;;;;;5054354;28;20048;-79
2021/09/11 04:07:48;;;;;;;9.43;7.60;;;;;;;;;;5073316;28;20056;-80
2021/09/11 04:10:14;;;;;;;9.82;8.25;;;;;;;;;;5085795;28;20060;-79
2021/09/11 04:12:41;;;;;;;11.77;8.55;;;;;;;;;;5082234;28;20071;-79
2021/09/11 04:15:08;;;;;;;9.45;7.93;;;;;;;;;;5070902;28;20550;-80
2021/09/11 04:17:37;;;;;;;8.60;7.07;;;;;;;;;;5053284;28;20486;-80
2021/09/11 04:20:04;;;;;;;10.07;8.00;;;;;;;;;;5056380;28;20124;-80
2021/09/11 04:22:30;;;;;;;9.50;7.65;;;;;;;;;;5058499;28;20434;-80
2021/09/11 04:24:57;;;;;;;9.75;8.02;;;;;;;;;;5064644;28;20186;-80
2021/09/11 04:27:23;;;;;;;8.90;7.90;;;;;;;;;;5069304;28;20048;-81
2021/09/11 04:29:49;;;;;;;9.25;7.88;;;;;;;;;;5062475;28;20538;-81
2021/09/11 04:32:16;;;;;;;9.50;7.78;;;;;;;;;;5052887;28;20118;-81
2021/09/11 04:34:42;;;;;;;9.18;7.55;;;;;;;;;;5058486;28;20067;-81
2021/09/11 04:37:08;;;;;;;9.93;8.05;;;;;;;;;;5075538;28;20626;-81
2021/09/11 04:39:35;;;;;;;10.50;8.27;;;;;;;;;;5076370;28;20072;-80
2021/09/11 04:42:01;;;;;;;9.80;8.18;;;;;;;;;;5082738;28;20477;-80
2021/09/11 04:44:28;;;;;;;9.70;7.55;;;;;;;;;;5059211;28;20090;-81
2021/09/11 04:46:55;;;;;;;9.35;7.25;;;;;;;;;;5072636;28;20102;-81
2021/09/11 04:49:21;;;;;;;9.77;7.88;;;;;;;;;;5069314;28;20048;-81
2021/09/11 04:51:48;;;;;;;9.70;7.80;;;;;;;;;;5063278;28;20190;-81
2021/09/11 04:54:14;;;;;;;8.93;7.43;;;;;;;;;;5065676;28;20047;-82
2021/09/11 04:56:41;;;;;;;10.23;8.07;;;;;;;;;;5080209;28;20582;-81
2021/09/11 04:59:07;;;;;;;8.55;7.18;;;;;;;;;;5088731;28;20033;-82
2021/09/11 05:01:33;;;;;;;8.85;7.05;;;;;;;;;;5065501;28;20759;-80
2021/09/11 05:04:00;;;;;;;11.07;7.60;;;;;;;;;;5069998;28;20043;-82
2021/09/11 05:06:26;;;;;;;9.93;8.30;;;;;;;;;;5046345;28;20053;-82
2021/09/11 05:08:53;;;;;;;10.45;7.88;;;;;;;;;;5066292;28;20029;-81
2021/09/11 05:11:19;;;;;;;9.65;7.43;;;;;;;;;;5078829;28;20113;-79
2021/09/11 05:13:45;;;;;;;10.68;7.88;;;;;;;;;;5074734;28;20783;-81
2021/09/11 05:16:12;;;;;;;9.70;7.45;;;;;;;;;;5064274;28;20088;-79
2021/09/11 05:18:38;;;;;;;8.60;7.35;;;;;;;;;;5060873;28;20511;-78
2021/09/11 05:21:05;;;;;;;9.68;7.57;;;;;;;;;;5073871;28;20056;-78
2021/09/11 05:23:32;;;;;;;8.57;7.32;;;;;;;;;;5071937;28;20106;-78
2021/09/11 05:26:00;;;;;;;9.65;7.40;;;;;;;;;;5050381;28;20036;-78
2021/09/11 05:28:26;;;;;;;9.63;7.38;;;;;;;;;;5038158;28;20130;-78
2021/09/11 05:30:53;;;;;;;9.07;7.00;;;;;;;;;;5068174;28;20074;-78
2021/09/11 05:33:19;;;;;;;9.82;7.50;;;;;;;;;;5077070;28;20127;-78
2021/09/11 05:35:45;;;;;;;10.20;7.57;;;;;;;;;;5071298;28;20468;-77
2021/09/11 05:38:12;;;;;;;8.38;7.32;;;;;;;;;;5072668;28;20599;-78
2021/09/11 05:40:38;;;;;;;9.38;7.30;;;;;;;;;;5071274;28;20064;-76
2021/09/11 05:43:05;;;;;;;10.05;7.57;;;;;;;;;;5074187;28;20067;-75
2021/09/11 05:45:31;;;;;;;9.13;7.05;;;;;;;;;;5071420;28;20071;-76
2021/09/11 05:47:57;;;;;;;9.55;7.22;;;;;;;;;;5069720;28;20092;-77
2021/09/11 05:50:24;;;;;;;10.60;7.70;;;;;;;;;;5050630;28;20143;-76
2021/09/11 05:52:50;;;;;;;10.27;7.72;;;;;;;;;;5074522;28;20072;-76
2021/09/11 05:55:17;;;;;;;11.00;7.75;;;;;;;;;;5074981;28;20056;-77
2021/09/11 05:57:43;;;;;;;8.32;7.18;;;;;;;;;;5075522;28;20056;-76
2021/09/11 06:00:10;;;;;;;10.60;7.60;;;;;;;;;;5075559;28;20060;-77
2021/09/11 06:02:36;;;;;;;9.63;7.15;;;;;;;;;;5066429;28;20153;-77
2021/09/11 06:05:03;;;;;;;9.10;6.90;;;;;;;;;;5044220;28;20206;-78
2021/09/11 06:07:29;;;;;;;9.52;7.13;;;;;;;;;;5047132;28;20057;-77
2021/09/11 06:09:56;;;;;;;10.27;7.10;;;;;;;;;;5059191;28;20065;-77
2021/09/11 06:12:22;;;;;;;9.18;7.07;;;;;;;;;;5056147;28;20068;-77
2021/09/11 06:14:49;;;;;;;8.82;6.97;;;;;;;;;;5035501;28;20039;-75
2021/09/11 06:17:16;;;;;;;8.45;6.88;;;;;;;;;;5068067;28;20056;-77
2021/09/11 06:19:43;;;;;;;8.57;7.13;;;;;;;;;;5072124;28;20129;-77
2021/09/11 06:22:11;;;;;;;11.63;7.53;;;;;;;;;;5064915;28;20507;-76
2021/09/11 06:24:37;;;;;;;10.48;7.45;;;;;;;;;;5036337;28;20044;-78
2021/09/11 06:27:07;;;;;;;9.02;7.03;;;;;;;;;;5064949;28;20052;-77
2021/09/11 06:29:33;;;;;;;10.25;6.80;;;;;;;;;;5052332;28;20036;-77
2021/09/11 06:32:00;;;;;;;10.48;6.80;;;;;;;;;;5058536;28;20683;-77
2021/09/11 06:34:26;;;;;;;9.38;6.82;;;;;;;;;;5074602;28;20051;-78
2021/09/11 06:36:53;;;;;;;10.00;7.28;;;;;;;;;;5084592;28;20473;-78
2021/09/11 06:39:19;;;;;;;9.02;7.07;;;;;;;;;;5082725;28;20063;-77
2021/09/11 06:41:46;;;;;;;7.80;6.43;;;;;;;;;;5074927;27;20780;-77
2021/09/11 06:44:12;;;;;;;8.43;6.63;;;;;;;;;;5057697;28;20054;-77
2021/09/11 06:46:39;;;;;;;9.38;7.15;;;;;;;;;;5073384;28;20569;-77
2021/09/11 06:49:05;;;;;;;9.07;6.72;;;;;;;;;;5076580;28;20072;-77
2021/09/11 06:51:32;;;;;;;8.63;6.85;;;;;;;;;;5067200;28;20064;-78
2021/09/11 06:53:58;;;;;;;7.45;6.18;;;;;;;;;;5067181;28;20067;-78
2021/09/11 06:56:25;;;;;;;8.20;6.63;;;;;;;;;;5060691;28;20128;-77
2021/09/11 06:58:51;;;;;;;8.98;7.40;;;;;;;;;;5065567;28;20056;-77
2021/09/11 07:01:20;;;;;;;9.20;6.97;;;;;;;;;;5073481;28;20036;-77
2021/09/11 07:03:46;;;;;;;9.27;6.80;;;;;;;;;;5074675;28;20056;-80
2021/09/11 07:06:12;;;;;;;7.57;6.57;;;;;;;;;;5073293;28;20052;-77
2021/09/11 07:08:39;;;;;;;8.63;6.20;;;;;;;;;;5081164;28;20052;-78
2021/09/11 07:11:09;;;;;;;9.10;6.57;;;;;;;;;;5059551;28;20052;-77
2021/09/11 07:13:36;;;;;;;8.60;6.90;;;;;;;;;;5081179;28;20556;-78
2021/09/11 07:16:02;;;;;;;10.55;6.65;;;;;;;;;;5082050;28;20087;-79
2021/09/11 07:18:29;;;;;;;7.57;6.47;;;;;;;;;;5070732;28;20578;-86
2021/09/11 07:20:55;;;;;;;9.77;6.43;;;;;;;;;;5053121;28;20072;-79
2021/09/11 07:23:21;;;;;;;8.88;6.57;;;;;;;;;;5048319;28;20651;-79
2021/09/11 07:25:48;;;;;;;9.80;6.32;;;;;;;;;;5074974;28;20044;-78
2021/09/11 07:28:15;;;;;;;9.20;6.35;;;;;;;;;;5065717;28;20086;-79
2021/09/11 07:30:42;;;;;;;8.13;6.28;;;;;;;;;;5081648;28;20064;-79
2021/09/11 07:33:08;;;;;;;8.35;6.72;;;;;;;;;;5060531;28;20150;-80
2021/09/11 07:35:35;;;;;;;9.68;6.80;;;;;;;;;;5062181;28;20066;-80
2021/09/11 07:38:01;;;;;;;7.32;6.07;;;;;;;;;;5063711;28;20059;-80
2021/09/11 07:40:28;;;;;;;8.63;6.40;;;;;;;;;;5078784;28;20510;-82
2021/09/11 07:42:54;;;;;;;9.23;6.22;;;;;;;;;;5053418;28;20036;-79
2021/09/11 07:45:21;;;;;;;8.70;5.88;;;;;;;;;;5071209;28;20439;-80
2021/09/11 07:47:47;;;;;;;7.95;6.13;;;;;;;;;;5046543;28;20531;-78
2021/09/11 07:50:14;;;;;;;8.18;6.60;;;;;;;;;;5065715;28;20502;-80
2021/09/11 07:52:41;;;;;;;8.50;6.65;;;;;;;;;;5060421;28;20083;-79
2021/09/11 07:55:08;;;;;;;8.60;6.60;;;;;;;;;;5081853;28;20027;-80
2021/09/11 07:57:36;;;;;;;6.88;5.93;;;;;;;;;;5075610;28;20067;-80
2021/09/11 08:00:03;;;;;;;7.88;5.82;;;;;;;;;;5058509;28;20129;-79
2021/09/11 08:02:30;;;;;;;6.75;6.05;;;;;;;;;;5048788;28;20043;-78
2021/09/11 08:04:56;;;;;;;8.15;6.25;;;;;;;;;;5073836;28;20581;-80
2021/09/11 08:07:27;;;;;;;7.28;5.70;;;;;;;;;;5083903;28;20140;-79
2021/09/11 08:09:55;;;;;;;7.72;6.07;;;;;;;;;;5066501;28;20067;-79
2021/09/11 08:12:22;;;;;;;8.05;6.10;;;;;;;;;;5085443;28;20082;-79
2021/09/11 08:14:49;;;;;;;8.48;6.15;;;;;;;;;;5081778;28;20085;-80
2021/09/11 08:17:16;;;;;;;7.65;6.35;;;;;;;;;;5083974;28;20132;-81
2021/09/11 08:19:42;;;;;;;7.13;5.88;;;;;;;;;;5079685;28;20088;-81
2021/09/11 08:22:09;;;;;;;7.78;5.80;;;;;;;;;;5075912;28;20036;-81
2021/09/11 08:24:35;;;;;;;9.35;6.88;;;;;;;;;;5064497;28;20070;-79
2021/09/11 08:27:01;;;;;;;8.68;6.10;;;;;;;;;;5067017;28;20729;-79
2021/09/11 08:29:28;;;;;;;7.60;6.18;;;;;;;;;;5062571;28;20440;-82
2021/09/11 08:31:54;;;;;;;6.93;6.10;;;;;;;;;;5082994;28;20163;-82
2021/09/11 08:34:21;;;;;;;9.05;6.57;;;;;;;;;;5064456;28;20456;-83
2021/09/11 08:36:47;;;;;;;6.78;5.75;;;;;;;;;;5046907;28;20148;-81
2021/09/11 08:39:14;;;;;;;8.10;6.18;;;;;;;;;;5045058;28;20028;-83
2021/09/11 08:41:40;;;;;;;7.55;5.82;;;;;;;;;;5064508;28;20056;-82
2021/09/11 08:44:06;;;;;;;7.13;6.13;;;;;;;;;;5054334;28;20072;-82
2021/09/11 08:46:33;;;;;;;6.75;5.75;;;;;;;;;;5055261;28;20061;-82
2021/09/11 08:48:59;;;;;;;6.40;5.75;;;;;;;;;;5034961;28;20976;-83
2021/09/11 08:51:26;;;;;;;7.32;5.68;;;;;;;;;;5057150;28;20114;-82
2021/09/11 08:53:52;;;;;;;7.18;6.00;;;;;;;;;;5056618;28;20463;-84
2021/09/11 08:56:19;;;;;;;6.75;5.78;;;;;;;;;;5045723;28;20744;-84
2021/09/11 08:58:46;;;;;;;6.40;5.65;;;;;;;;;;5065678;28;20396;-83
2021/09/11 09:01:12;;;;;;;5.95;5.28;;;;;;;;;;5048374;28;20089;-82
2021/09/11 09:03:40;;;;;;;7.65;5.80;;;;;;;;;;5059087;28;20577;-83
2021/09/11 09:06:12;;;;;;;7.28;5.68;;;;;;;;;;5065295;28;20107;-81
2021/09/11 09:08:39;;;;;;;8.38;5.90;;;;;;;;;;5062391;28;20555;-82
2021/09/11 09:11:24;;;;;;;6.07;4.80;;;;;;;;;;5063942;28;20056;-82
2021/09/11 09:14:01;;;;;;;6.63;5.22;;;;;;;;;;5079680;28;20130;-82
2021/09/11 09:16:32;;;;;;;6.18;5.22;;;;;;;;;;5065630;28;20077;-83
2021/09/11 09:18:58;;;;;;;7.25;4.95;;;;;;;;;;5055894;28;20093;-83
2021/09/11 09:21:35;;;;;;;6.85;5.30;;;;;;;;;;5079188;28;20032;-83
2021/09/11 09:24:03;;;;;;;6.93;4.97;;;;;;;;;;5060889;28;20122;-81
2021/09/11 09:26:31;;;;;;;6.05;4.75;;;;;;;;;;5082524;28;20107;-82
2021/09/11 09:28:59;;;;;;;6.85;5.13;;;;;;;;;;5083084;28;20051;-83
2021/09/11 09:31:25;;;;;;;6.38;4.40;;;;;;;;;;5069387;28;20048;-83
2021/09/11 09:33:52;;;;;;;5.97;4.68;;;;;;;;;;5075528;28;20075;-83
2021/09/11 09:36:18;;;;;;;6.40;5.00;;;;;;;;;;5067120;28;20064;-83
2021/09/11 09:38:45;;;;;;;6.72;4.70;;;;;;;;;;5085900;28;20511;-83
2021/09/11 09:41:12;;;;;;;6.38;4.72;;;;;;;;;;5066846;28;20075;-83
2021/09/11 09:43:40;;;;;;;5.40;4.43;;;;;;;;;;5062921;28;20136;-83
2021/09/11 09:46:13;;;;;;;5.57;3.97;;;;;;;;;;5057701;28;20044;-83
2021/09/11 09:48:41;;;;;;;6.47;4.40;;;;;;;;;;5043156;28;20050;-80
2021/09/11 09:51:12;;;;;;;6.00;5.03;;;;;;;;;;5053375;28;20652;-83
2021/09/11 09:53:40;;;;;;;5.75;4.45;;;;;;;;;;5066959;27;20067;-82
2021/09/11 09:56:07;;;;;;;5.15;4.32;;;;;;;;;;5074891;28;20164;-83
2021/09/11 09:58:34;;;;;;;6.28;4.90;;;;;;;;;;5073774;28;20056;-82
2021/09/11 10:01:01;;;;;;;5.25;3.90;;;;;;;;;;5048368;28;20056;-82
2021/09/11 10:03:27;;;;;;;5.90;4.50;;;;;;;;;;5064336;28;20052;-83
2021/09/11 10:05:58;;;;;;;6.45;4.22;;;;;;;;;;5068390;28;20200;-82
2021/09/11 10:08:25;;;;;;;5.18;3.97;;;;;;;;;;5037349;28;20116;-84
2021/09/11 10:10:52;;;;;;;5.45;4.13;;;;;;;;;;5036079;28;20094;-82
2021/09/11 10:13:21;;;;;;;5.13;4.13;;;;;;;;;;5016892;28;20068;-83
2021/09/11 10:15:50;;;;;;;6.13;4.20;;;;;;;;;;5051351;28;20060;-83
2021/09/11 10:18:32;;;;;;;5.35;4.20;;;;;;;;;;5044722;28;20021;-82
2021/09/11 10:21:17;;;;;;;4.97;4.13;;;;;;;;;;5057999;28;20033;-81
2021/09/11 10:23:44;;;;;;;5.63;4.38;;;;;;;;;;5059505;28;20067;-82
2021/09/11 10:26:30;;;;;;;5.32;4.15;;;;;;;;;;5077861;28;20606;-81
2021/09/11 10:28:56;;;;;;;5.53;3.63;;;;;;;;;;5076212;28;20055;-82
2021/09/11 10:31:23;;;;;;;5.07;4.22;;;;;;;;;;5076366;28;20045;-82
2021/09/11 10:33:52;;;;;;;4.65;3.28;;;;;;;;;;5056191;28;20059;-84
2021/09/11 10:36:22;;;;;;;4.57;3.88;;;;;;;;;;5050923;28;20086;-85
2021/09/11 10:38:51;;;;;;;5.65;4.32;;;;;;;;;;5084230;28;20044;-84
2021/09/11 10:41:18;;;;;;;5.47;4.45;;;;;;;;;;5048094;28;20111;-86
2021/09/11 10:44:07;;;;;;;5.90;4.00;;;;;;;;;;5062237;28;20049;-85
2021/09/11 10:46:50;;;;;;;4.47;3.97;;;;;;;;;;5061507;28;20032;-85
2021/09/11 10:49:28;;;;;;;4.93;3.70;;;;;;;;;;5070740;28;21252;-85
2021/09/11 10:52:02;;;;;;;5.45;3.10;;;;;;;;;;5047464;28;20045;-85
2021/09/11 10:54:31;;;;;;;4.63;3.65;;;;;;;;;;5065580;28;20196;-85
2021/09/11 10:57:00;;;;;;;4.72;3.15;;;;;;;;;;5055662;28;20048;-85
2021/09/11 10:59:28;;;;;;;4.10;3.25;;;;;;;;;;5049882;28;20113;-85
2021/09/11 11:01:55;;;;;;;5.78;3.40;;;;;;;;;;5059175;28;20040;-84
2021/09/11 11:04:26;;;;;;;4.60;3.75;;;;;;;;;;5045250;28;20056;-85
2021/09/11 11:06:53;;;;;;;7.22;4.38;;;;;;;;;;5075521;28;20060;-85
2021/09/11 11:09:20;;;;;;;4.65;3.80;;;;;;;;;;5084032;28;20052;-85
2021/09/11 11:11:50;;;;;;;4.20;3.65;;;;;;;;;;5070146;28;20055;-87
2021/09/11 11:14:17;;;;;;;4.75;3.65;;;;;;;;;;5069660;28;20036;-84
2021/09/11 11:16:46;;;;;;;4.75;3.65;;;;;;;;;;5062999;28;20516;-83
2021/09/11 11:19:26;;;;;;;5.18;3.95;;;;;;;;;;5055666;28;20113;-86
2021/09/11 11:21:53;;;;;;;5.22;3.95;;;;;;;;;;5061483;28;20081;-86
2021/09/11 11:24:20;;;;;;;6.20;4.05;;;;;;;;;;5086098;28;20457;-83
2021/09/11 11:26:47;;;;;;;6.82;4.15;;;;;;;;;;5083233;28;20056;-85
2021/09/11 11:29:18;;;;;;;9.70;4.15;;;;;;;;;;5063101;28;20056;-83
2021/09/11 11:31:44;;;;;;;11.05;4.25;;;;;;;;;;5075427;28;20037;-83
2021/09/11 11:34:15;;;;;;;9.63;4.53;;;;;;;;;;5070128;28;20531;-84
2021/09/11 11:36:51;;;;;;;9.70;5.00;;;;;;;;;;5085746;28;20067;-83
2021/09/11 11:39:44;;;;;;;6.55;4.30;;;;;;;;;;5084632;28;20058;-83
2021/09/11 11:42:13;;;;;;;6.47;3.90;;;;;;;;;;5071599;28;20029;-84
2021/09/11 11:44:41;;;;;;;5.45;3.72;;;;;;;;;;5077300;28;20513;-83
2021/09/11 11:47:14;;;;;;;5.60;3.67;;;;;;;;;;5072669;28;20662;-83
2021/09/11 11:49:41;;;;;;;4.20;3.20;;;;;;;;;;5074727;28;20040;-83
2021/09/11 11:52:09;;;;;;;4.30;3.03;;;;;;;;;;5085390;28;20105;-84
2021/09/11 11:54:37;;;;;;;3.47;2.50;;;;;;;;;;5085147;28;20032;-81
2021/09/11 11:57:08;;;;;;;3.35;2.60;;;;;;;;;;5081097;28;20052;-84
2021/09/11 11:59:34;;;;;;;;;;;;;;;;;;5062428;28;20052;-84
2021/09/11 12:02:15;;;;;;;4.57;2.63;;;;;;;;;;5085387;28;20084;-85
2021/09/11 12:04:42;;;;;;;3.70;2.63;;;;;;;;;;5065102;28;20113;-84
2021/09/11 12:07:10;;;;;;;5.93;2.50;;;;;;;;;;5081236;28;20113;-84
2021/09/11 12:09:49;;;;;;;4.70;2.80;;;;;;;;;;5047761;28;20121;-83
2021/09/11 12:12:15;;;;;;;5.60;2.80;;;;;;;;;;5058382;28;20056;-85
2021/09/11 12:14:42;;;;;;;4.50;2.65;;;;;;;;;;5065936;28;20113;-84
2021/09/11 12:17:13;;;;;;;4.28;2.80;;;;;;;;;;5064998;28;20113;-85
2021/09/11 12:19:40;;;;;;;5.25;3.13;;;;;;;;;;5062064;28;20083;-84
2021/09/11 12:22:17;;;;;;;4.70;3.03;;;;;;;;;;5048908;28;20508;-84
2021/09/11 12:24:43;;;;;;;4.38;3.22;;;;;;;;;;5078408;28;20073;-85
2021/09/11 12:27:10;;;;;;;4.60;3.10;;;;;;;;;;5081221;28;20074;-84
2021/09/11 12:29:37;;;;;;;2.80;2.47;;;;;;;;;;5063148;28;20410;-84
2021/09/11 12:32:06;;;;;;;5.25;2.95;;;;;;;;;;5083733;28;20032;-84
2021/09/11 12:34:43;;;;;;;3.72;2.88;;;;;;;;;;5083960;28;20027;-84
2021/09/11 12:37:10;;;;;;;4.90;2.78;;;;;;;;;;5098292;27;20085;-84
2021/09/11 12:39:39;;;;;;;4.82;2.65;;;;;;;;;;5080212;28;20505;-84
2021/09/11 12:42:11;;;;;;;4.03;2.70;;;;;;;;;;5076130;28;20044;-85
2021/09/11 12:44:38;;;;;;;4.55;2.40;;;;;;;;;;5072509;28;20589;-83
2021/09/11 12:47:08;;;;;;;5.40;2.90;;;;;;;;;;5068411;28;20064;-85
2021/09/11 12:49:36;;;;;;;3.80;2.83;;;;;;;;;;5058552;28;20028;-85
2021/09/11 12:52:03;;;;;;;4.25;2.80;;;;;;;;;;5075370;28;20037;-84
2021/09/11 12:54:29;;;;;;;3.88;2.50;;;;;;;;;;5063444;28;20049;-85
2021/09/11 12:56:58;;;;;;;5.13;2.63;;;;;;;;;;5050124;28;20197;-85
2021/09/11 12:59:24;;;;;;;5.93;2.88;;;;;;;;;;5060494;28;20036;-85
2021/09/11 13:01:51;;;;;;;5.13;3.15;;;;;;;;;;5050422;28;20051;-85
2021/09/11 13:04:18;;;;;;;5.53;2.90;;;;;;;;;;5073057;28;20082;-87
2021/09/11 13:06:45;;;;;;;5.13;2.85;;;;;;;;;;5048515;28;20144;-86
2021/09/11 13:09:13;;;;;;;4.00;2.80;;;;;;;;;;5051414;28;20052;-87
2021/09/11 13:11:40;;;;;;;4.93;2.97;;;;;;;;;;5046192;28;20068;-89
2021/09/11 13:14:07;;;;;;;3.83;2.90;;;;;;;;;;5065467;28;20453;-88
2021/09/11 13:16:34;;;;;;;4.35;2.80;;;;;;;;;;5051915;28;20109;-88
2021/09/11 13:19:01;;;;;;;5.93;2.60;;;;;;;;;;5045522;28;20122;-89
2021/09/11 13:21:28;;;;;;;3.42;2.70;;;;;;;;;;5043236;28;20050;-88
2021/09/11 13:23:55;;;;;;;5.05;2.85;;;;;;;;;;5057860;28;20060;-88
2021/09/11 13:26:24;;;;;;;4.03;2.63;;;;;;;;;;5058256;28;20060;-88
2021/09/11 13:28:51;;;;;;;5.78;2.80;;;;;;;;;;5047944;28;20114;-88
2021/09/11 13:31:18;;;;;;;3.88;2.30;;;;;;;;;;5051711;28;20056;-89
2021/09/11 13:33:48;;;;;;;3.55;2.80;;;;;;;;;;5055600;28;20047;-88
2021/09/11 13:36:16;;;;;;;3.23;2.30;;;;;;;;;;5070369;28;20071;-88
2021/09/11 13:38:43;;;;;;;3.72;2.58;;;;;;;;;;5047998;28;20080;-88
2021/09/11 13:41:09;;;;;;;5.32;3.05;;;;;;;;;;5064236;28;20519;-88
2021/09/11 13:43:36;;;;;;;5.03;3.17;;;;;;;;;;5045247;28;20589;-86
2021/09/11 13:46:04;;;;;;;4.75;2.92;;;;;;;;;;5051169;28;20079;-88
2021/09/11 13:48:31;;;;;;;5.15;2.90;;;;;;;;;;5037250;28;20075;-87
2021/09/11 13:50:57;;;;;;;4.97;2.72;;;;;;;;;;5033582;28;20102;-87
2021/09/11 13:53:25;;;;;;;3.92;2.80;;;;;;;;;;5064755;28;20500;-87
2021/09/11 13:55:52;;;;;;;4.32;2.85;;;;;;;;;;5052710;28;20564;-87
2021/09/11 13:58:18;;;;;;;4.20;2.55;;;;;;;;;;5055433;28;20059;-87
2021/09/11 14:00:45;;;;;;;4.47;2.80;;;;;;;;;;5048415;28;20507;-88
2021/09/11 14:03:11;;;;;;;4.90;2.90;;;;;;;;;;5039367;28;20065;-87
2021/09/11 14:05:38;;;;;;;3.90;2.80;;;;;;;;;;5052681;28;20056;-85
2021/09/11 14:08:07;;;;;;;4.45;2.63;;;;;;;;;;5080594;28;20386;-80
2021/09/11 14:10:34;;;;;;;5.60;2.72;;;;;;;;;;5058925;28;20591;-79
2021/09/11 14:13:01;;;;;;;6.18;2.92;;;;;;;;;;5061828;28;20471;-79
2021/09/11 14:15:27;;;;;;;4.88;3.03;;;;;;;;;;5063689;28;20081;-79
2021/09/11 14:17:54;;;;;;;4.82;3.10;;;;;;;;;;5066601;28;20440;-80
2021/09/11 14:20:21;;;;;;;4.55;3.10;;;;;;;;;;5054926;28;20137;-79
2021/09/11 14:22:48;;;;;;;5.05;3.53;;;;;;;;;;5061861;28;20137;-79
2021/09/11 14:25:15;;;;;;;4.63;3.35;;;;;;;;;;5044412;28;21372;-77
2021/09/11 14:27:42;;;;;;;6.65;3.10;;;;;;;;;;5059039;28;20032;-77
2021/09/11 14:30:11;;;;;;;6.93;3.35;;;;;;;;;;5045408;28;20056;-78
2021/09/11 14:32:37;;;;;;;8.18;4.07;;;;;;;;;;5072933;28;20143;-78
2021/09/11 14:35:04;;;;;;;4.53;3.30;;;;;;;;;;5085334;28;20051;-78
2021/09/11 14:37:31;;;;;;;5.07;3.33;;;;;;;;;;5076550;28;20450;-78
2021/09/11 14:40:00;;;;;;;4.47;3.10;;;;;;;;;;5073946;28;20152;-76
2021/09/11 14:42:30;;;;;;;4.95;3.50;;;;;;;;;;5076230;28;20446;-79